createdAt,value
2023-02-26T00:01:02.060Z,1.92
2023-02-26T00:04:07.103Z,1.89
2023-02-26T00:07:09.715Z,1.95
2023-02-26T00:10:14.939Z,1.78
2023-02-26T00:13:18.019Z,1.83
2023-02-26T00:16:28.623Z,1.82
2023-02-26T00:19:31.520Z,1.69
2023-02-26T00:22:34.748Z,1.72
2023-02-26T00:25:37.337Z,1.77
2023-02-26T00:28:40.605Z,1.65
2023-02-26T00:31:45.102Z,1.65
2023-02-26T00:34:48.734Z,1.67
2023-02-26T00:38:00.904Z,1.67
2023-02-26T00:41:03.887Z,1.62
2023-02-26T00:44:07.274Z,1.64
2023-02-26T00:47:18.885Z,1.52
2023-02-26T00:50:24.057Z,1.56
2023-02-26T00:53:32.732Z,1.59
2023-02-26T00:56:35.292Z,1.52
2023-02-26T00:59:37.900Z,1.42
2023-02-26T01:02:42.767Z,1.45
2023-02-26T01:05:45.846Z,1.41
2023-02-26T01:08:55.213Z,1.47
2023-02-26T01:12:01.698Z,1.46
2023-02-26T01:15:06.242Z,1.41
2023-02-26T01:18:15.034Z,1.45
2023-02-26T01:21:23.484Z,1.39
2023-02-26T01:24:28.186Z,1.37
2023-02-26T01:27:31.147Z,1.24
2023-02-26T01:30:34.327Z,1.26
2023-02-26T01:33:45.474Z,1.28
2023-02-26T01:36:55.438Z,1.31
2023-02-26T01:40:23.282Z,1.32
2023-02-26T01:43:33.351Z,1.33
2023-02-26T01:46:42.724Z,1.36
2023-02-26T01:49:47.561Z,1.38
2023-02-26T01:53:23.799Z,1.30
2023-02-26T01:56:26.927Z,1.62
2023-02-26T01:59:29.687Z,1.62
2023-02-26T02:02:33.102Z,1.54
2023-02-26T02:05:46.222Z,1.53
2023-02-26T02:08:49.119Z,1.45
2023-02-26T02:12:08.301Z,1.54
2023-02-26T02:15:15.336Z,1.51
2023-02-26T02:18:24.676Z,1.53
2023-02-26T02:21:45.210Z,1.56
2023-02-26T02:25:02.880Z,1.55
2023-02-26T02:28:15.127Z,1.55
2023-02-26T02:31:23.048Z,1.62
2023-02-26T02:34:30.436Z,1.59
2023-02-26T02:37:38.151Z,1.75
2023-02-26T02:40:45.040Z,1.69
2023-02-26T02:43:49.660Z,1.65
2023-02-26T02:46:57.220Z,1.66
2023-02-26T02:50:06.233Z,1.65
2023-02-26T02:53:15.125Z,1.63
2023-02-26T02:56:24.918Z,1.55
2023-02-26T02:59:33.350Z,1.48
2023-02-26T03:02:47.398Z,1.43
2023-02-26T03:05:50.124Z,1.40
2023-02-26T03:08:54.012Z,1.28
2023-02-26T03:11:56.616Z,1.28
2023-02-26T03:14:59.411Z,1.20
2023-02-26T03:18:15.564Z,1.14
2023-02-26T03:21:23.131Z,1.11
2023-02-26T03:24:30.669Z,1.14
2023-02-26T03:27:37.632Z,1.11
2023-02-26T03:30:45.588Z,1.00
2023-02-26T03:33:55.461Z,1.01
2023-02-26T03:37:03.744Z,0.95
2023-02-26T03:40:10.845Z,1.07
2023-02-26T03:43:19.315Z,1.06
2023-02-26T03:46:28.868Z,0.92
2023-02-26T03:49:36.956Z,0.96
2023-02-26T03:52:44.371Z,0.93
2023-02-26T03:55:51.461Z,0.92
2023-02-26T03:58:54.201Z,0.84
2023-02-26T04:02:01.957Z,0.95
2023-02-26T04:05:13.390Z,0.95
2023-02-26T04:08:16.137Z,0.78
2023-02-26T04:11:22.494Z,0.82
2023-02-26T04:14:25.141Z,0.89
2023-02-26T04:17:29.648Z,0.88
2023-02-26T04:20:34.379Z,0.76
2023-02-26T04:23:36.955Z,0.73
2023-02-26T04:26:39.541Z,0.76
2023-02-26T04:29:42.222Z,0.75
2023-02-26T04:32:44.798Z,0.90
2023-02-26T04:35:48.919Z,0.88
2023-02-26T04:38:51.553Z,0.78
2023-02-26T04:41:54.153Z,0.63
2023-02-26T04:44:56.720Z,0.71
2023-02-26T04:47:59.308Z,0.73
2023-02-26T04:51:03.226Z,0.68
2023-02-26T04:54:06.095Z,0.69
2023-02-26T04:57:08.973Z,0.53
2023-02-26T05:00:13.121Z,0.61
2023-02-26T05:03:15.932Z,0.62
2023-02-26T05:06:19.894Z,0.68
2023-02-26T05:09:22.698Z,0.51
2023-02-26T05:12:25.592Z,0.54
2023-02-26T05:15:28.265Z,0.47
2023-02-26T05:18:30.860Z,0.47
2023-02-26T05:21:35.313Z,0.45
2023-02-26T05:24:37.958Z,0.36
2023-02-26T05:27:42.323Z,0.44
2023-02-26T05:30:44.956Z,0.40
2023-02-26T05:33:47.587Z,0.33
2023-02-26T05:36:51.497Z,0.39
2023-02-26T05:39:54.098Z,0.28
2023-02-26T05:42:56.660Z,0.39
2023-02-26T05:45:59.238Z,0.33
2023-02-26T05:49:01.856Z,0.37
2023-02-26T05:52:05.845Z,0.43
2023-02-26T05:55:10.120Z,0.30
2023-02-26T05:58:13.164Z,0.25
2023-02-26T06:01:15.778Z,0.32
2023-02-26T06:04:18.475Z,0.28
2023-02-26T06:07:22.440Z,0.38
2023-02-26T06:10:25.052Z,0.44
2023-02-26T06:13:27.653Z,0.40
2023-02-26T06:16:30.722Z,0.36
2023-02-26T06:19:33.363Z,0.28
2023-02-26T06:22:37.353Z,0.32
2023-02-26T06:25:40.023Z,0.43
2023-02-26T06:28:42.622Z,0.49
2023-02-26T06:31:45.625Z,0.37
2023-02-26T06:34:48.398Z,0.42
2023-02-26T06:37:52.511Z,0.34
2023-02-26T06:40:55.173Z,0.44
2023-02-26T06:43:57.776Z,0.44
2023-02-26T06:47:00.384Z,0.41
2023-02-26T06:50:03.989Z,0.57
2023-02-26T06:53:08.060Z,0.54
2023-02-26T06:56:10.685Z,0.58
2023-02-26T06:59:15.187Z,0.52
2023-02-26T07:02:19.600Z,0.66
2023-02-26T07:05:22.301Z,0.64
2023-02-26T07:08:26.249Z,0.55
2023-02-26T07:11:28.872Z,0.58
2023-02-26T07:14:31.570Z,0.71
2023-02-26T07:17:34.447Z,0.80
2023-02-26T07:20:37.096Z,0.89
2023-02-26T07:23:41.121Z,0.78
2023-02-26T07:26:43.785Z,0.93
2023-02-26T07:29:46.369Z,0.94
2023-02-26T07:32:49.066Z,1.10
2023-02-26T07:35:51.691Z,1.22
2023-02-26T07:38:55.714Z,1.37
2023-02-26T07:41:58.325Z,1.37
2023-02-26T07:45:00.908Z,1.45
2023-02-26T07:48:03.974Z,1.53
2023-02-26T07:51:07.792Z,1.63
2023-02-26T07:54:11.720Z,1.85
2023-02-26T07:57:14.361Z,1.86
2023-02-26T08:00:18.435Z,1.98
2023-02-26T08:03:21.102Z,1.93
2023-02-26T08:06:24.098Z,1.99
2023-02-26T08:09:28.562Z,1.99
2023-02-26T08:12:31.199Z,2.02
2023-02-26T08:15:33.818Z,2.13
2023-02-26T08:18:36.618Z,2.17
2023-02-26T08:21:39.236Z,2.29
2023-02-26T08:24:43.441Z,2.38
2023-02-26T08:27:46.144Z,2.31
2023-02-26T08:30:48.741Z,2.36
2023-02-26T08:33:51.370Z,2.40
2023-02-26T08:36:54.026Z,2.53
2023-02-26T08:39:58.017Z,2.56
2023-02-26T08:43:00.605Z,2.12
2023-02-26T08:46:03.367Z,2.58
2023-02-26T08:49:05.962Z,2.36
2023-02-26T08:52:08.566Z,2.94
2023-02-26T08:55:12.878Z,2.82
2023-02-26T08:58:15.479Z,3.10
2023-02-26T09:01:18.043Z,3.38
2023-02-26T09:04:20.741Z,3.39
2023-02-26T09:07:23.441Z,3.53
2023-02-26T09:10:27.677Z,3.52
2023-02-26T09:13:31.002Z,3.70
2023-02-26T09:16:35.345Z,3.68
2023-02-26T09:19:38.009Z,3.89
2023-02-26T09:22:41.194Z,3.97
2023-02-26T09:25:45.209Z,4.13
2023-02-26T09:28:47.823Z,4.04
2023-02-26T09:31:50.486Z,3.78
2023-02-26T09:34:53.327Z,3.61
2023-02-26T09:37:55.907Z,4.15
2023-02-26T09:41:04.608Z,4.52
2023-02-26T09:44:13.891Z,4.70
2023-02-26T09:47:21.966Z,4.96
2023-02-26T09:50:29.802Z,4.87
2023-02-26T09:53:38.394Z,4.89
2023-02-26T09:56:42.702Z,5.34
2023-02-26T09:59:45.288Z,5.38
2023-02-26T10:02:57.785Z,5.67
2023-02-26T10:06:17.010Z,6.11
2023-02-26T10:09:33.486Z,6.11
2023-02-26T10:12:40.256Z,6.02
2023-02-26T10:15:45.057Z,6.40
2023-02-26T10:18:53.002Z,6.64
2023-02-26T10:22:00.852Z,7.15
2023-02-26T10:25:09.059Z,7.93
2023-02-26T10:28:34.664Z,7.93
2023-02-26T10:31:43.597Z,8.24
2023-02-26T10:34:52.599Z,8.71
2023-02-26T10:37:58.849Z,8.91
2023-02-26T10:41:05.596Z,9.46
2023-02-26T10:44:17.292Z,9.26
2023-02-26T10:47:28.732Z,9.21
2023-02-26T10:50:32.418Z,7.97
2023-02-26T10:53:35.577Z,7.74
2023-02-26T10:56:38.154Z,7.91
2023-02-26T10:59:42.148Z,7.20
2023-02-26T11:02:47.922Z,9.45
2023-02-26T11:05:50.598Z,9.45
2023-02-26T11:08:55.237Z,9.93
2023-02-26T11:12:06.280Z,9.54
2023-02-26T11:15:16.183Z,9.34
2023-02-26T11:18:22.636Z,9.25
2023-02-26T11:21:30.483Z,9.40
2023-02-26T11:24:37.542Z,9.72
2023-02-26T11:27:40.115Z,9.00
2023-02-26T11:30:45.932Z,8.43
2023-02-26T11:33:51.579Z,8.03
2023-02-26T11:36:58.104Z,7.95
2023-02-26T11:40:08.660Z,8.56
2023-02-26T11:43:15.894Z,7.47
2023-02-26T11:46:25.534Z,7.19
2023-02-26T11:49:29.882Z,7.02
2023-02-26T11:52:35.301Z,6.79
2023-02-26T11:55:40.039Z,6.70
2023-02-26T11:58:47.125Z,6.50
2023-02-26T12:01:52.673Z,6.60
2023-02-26T12:04:58.578Z,7.84
2023-02-26T12:08:04.042Z,10.04
2023-02-26T12:11:23.691Z,10.94
2023-02-26T12:14:50.736Z,10.57
2023-02-26T12:18:08.527Z,8.93
2023-02-26T12:21:27.253Z,7.83
2023-02-26T12:24:53.952Z,6.99
2023-02-26T12:28:14.713Z,6.96
2023-02-26T12:31:48.177Z,6.83
2023-02-26T12:35:12.428Z,6.54
2023-02-26T12:38:26.853Z,6.75
2023-02-26T12:41:43.753Z,6.69
2023-02-26T12:45:00.201Z,6.75
2023-02-26T12:48:32.342Z,7.25
2023-02-26T12:51:51.425Z,6.66
2023-02-26T12:55:11.091Z,6.81
2023-02-26T12:58:40.464Z,7.78
2023-02-26T13:02:01.298Z,7.51
2023-02-26T13:05:27.399Z,8.08
2023-02-26T13:08:39.303Z,7.74
2023-02-26T13:11:51.674Z,9.26
2023-02-26T13:15:07.102Z,9.08
2023-02-26T13:18:17.284Z,8.58
2023-02-26T13:21:24.224Z,8.60
2023-02-26T13:24:35.926Z,9.19
2023-02-26T13:27:40.310Z,8.35
2023-02-26T13:30:49.283Z,7.95
2023-02-26T13:33:53.945Z,7.56
2023-02-26T13:36:57.513Z,7.17
2023-02-26T13:40:21.379Z,7.24
2023-02-26T13:43:35.653Z,7.10
2023-02-26T13:46:53.430Z,7.51
2023-02-26T13:50:07.319Z,8.98
2023-02-26T13:53:43.785Z,8.44
2023-02-26T13:57:06.172Z,8.15
2023-02-26T14:00:23.080Z,7.67
2023-02-26T14:03:34.246Z,8.09
2023-02-26T14:06:42.070Z,7.77
2023-02-26T14:09:55.048Z,8.58
2023-02-26T14:13:13.136Z,9.80
2023-02-26T14:16:23.703Z,10.47
2023-02-26T14:19:33.802Z,10.22
2023-02-26T14:22:41.688Z,9.31
2023-02-26T14:25:48.877Z,8.72
2023-02-26T14:29:09.759Z,8.31
2023-02-26T14:32:26.997Z,7.78
2023-02-26T14:35:32.922Z,7.27
2023-02-26T14:38:38.715Z,7.34
2023-02-26T14:41:42.174Z,7.65
2023-02-26T14:44:49.480Z,7.77
2023-02-26T14:47:52.467Z,8.54
2023-02-26T14:51:17.904Z,8.65
2023-02-26T14:54:32.796Z,9.09
2023-02-26T14:57:44.624Z,9.59
2023-02-26T15:00:53.551Z,9.75
2023-02-26T15:04:16.242Z,9.69
2023-02-26T15:07:32.737Z,9.91
2023-02-26T15:10:48.065Z,9.19
2023-02-26T15:14:15.407Z,9.24
2023-02-26T15:17:32.789Z,8.37
2023-02-26T15:20:41.748Z,7.74
2023-02-26T15:23:46.653Z,7.48
2023-02-26T15:26:52.462Z,7.15
2023-02-26T15:29:55.379Z,6.42
2023-02-26T15:33:01.958Z,6.92
2023-02-26T15:36:09.900Z,6.73
2023-02-26T15:39:17.382Z,6.45
2023-02-26T15:42:22.289Z,6.50
2023-02-26T15:45:29.254Z,6.33
2023-02-26T15:48:37.375Z,6.38
2023-02-26T15:51:40.949Z,5.80
2023-02-26T15:54:46.411Z,6.18
2023-02-26T15:57:49.645Z,6.22
2023-02-26T16:00:54.952Z,6.15
2023-02-26T16:04:01.428Z,5.82
2023-02-26T16:07:04.334Z,5.73
2023-02-26T16:10:09.402Z,5.57
2023-02-26T16:13:17.090Z,5.76
2023-02-26T16:16:25.521Z,5.31
2023-02-26T16:19:34.778Z,5.45
2023-02-26T16:22:40.080Z,5.37
2023-02-26T16:25:50.841Z,5.61
2023-02-26T16:29:00.794Z,5.44
2023-02-26T16:32:05.694Z,5.44
2023-02-26T16:35:17.839Z,5.44
2023-02-26T16:38:24.844Z,5.25
2023-02-26T16:41:30.744Z,5.20
2023-02-26T16:44:50.304Z,5.03
2023-02-26T16:47:56.492Z,5.07
2023-02-26T16:51:03.556Z,5.02
2023-02-26T16:54:10.030Z,4.99
2023-02-26T16:57:19.120Z,4.88
2023-02-26T17:00:30.744Z,4.84
2023-02-26T17:03:33.624Z,4.72
2023-02-26T17:06:39.953Z,4.83
2023-02-26T17:09:51.342Z,4.75
2023-02-26T17:13:02.579Z,4.80
2023-02-26T17:16:09.701Z,4.75
2023-02-26T17:19:12.844Z,4.70
2023-02-26T17:22:18.800Z,4.62
2023-02-26T17:25:21.999Z,4.61
2023-02-26T17:28:27.607Z,4.60
2023-02-26T17:31:30.259Z,4.52
2023-02-26T17:34:32.963Z,4.52
2023-02-26T17:37:37.506Z,4.38
2023-02-26T17:40:41.621Z,4.32
2023-02-26T17:43:44.218Z,4.30
2023-02-26T17:46:46.861Z,4.25
2023-02-26T17:49:49.778Z,4.24
2023-02-26T17:52:53.911Z,4.26
2023-02-26T17:55:56.791Z,4.16
2023-02-26T17:59:00.598Z,4.03
2023-02-26T18:02:03.196Z,3.87
2023-02-26T18:05:06.609Z,3.88
2023-02-26T18:08:18.801Z,3.81
2023-02-26T18:11:25.807Z,3.72
2023-02-26T18:14:28.626Z,3.71
2023-02-26T18:17:32.197Z,3.65
2023-02-26T18:20:35.095Z,3.62
2023-02-26T18:23:39.048Z,3.45
2023-02-26T18:26:41.838Z,3.38
2023-02-26T18:29:44.976Z,3.31
2023-02-26T18:32:47.622Z,3.32
2023-02-26T18:35:54.886Z,3.19
2023-02-26T18:39:01.351Z,3.19
2023-02-26T18:42:04.067Z,3.14
2023-02-26T18:45:07.531Z,3.21
2023-02-26T18:48:11.750Z,3.08
2023-02-26T18:51:14.464Z,2.96
2023-02-26T18:54:18.413Z,2.92
2023-02-26T18:57:21.025Z,2.91
2023-02-26T19:00:24.018Z,2.87
2023-02-26T19:03:27.151Z,2.77
2023-02-26T19:06:29.782Z,2.77
2023-02-26T19:09:34.962Z,2.78
2023-02-26T19:12:38.368Z,2.72
2023-02-26T19:15:40.991Z,2.70
2023-02-26T19:18:43.594Z,2.57
2023-02-26T19:21:46.209Z,2.63
2023-02-26T19:24:50.157Z,2.63
2023-02-26T19:27:53.527Z,2.63
2023-02-26T19:30:56.586Z,2.49
2023-02-26T19:33:59.609Z,2.43
2023-02-26T19:37:02.442Z,2.58
2023-02-26T19:40:10.010Z,2.48
2023-02-26T19:43:12.612Z,2.48
2023-02-26T19:46:15.573Z,2.34
2023-02-26T19:49:18.747Z,2.26
2023-02-26T19:52:21.366Z,2.26
2023-02-26T19:55:25.305Z,2.39
2023-02-26T19:58:30.541Z,2.27
2023-02-26T20:01:33.273Z,2.26
2023-02-26T20:04:36.029Z,2.31
2023-02-26T20:07:38.678Z,2.29
2023-02-26T20:10:44.396Z,2.36
2023-02-26T20:13:47.383Z,2.18
2023-02-26T20:16:50.009Z,2.05
2023-02-26T20:19:53.833Z,2.20
2023-02-26T20:22:56.447Z,2.03
2023-02-26T20:26:00.396Z,2.11
2023-02-26T20:29:03.106Z,2.05
2023-02-26T20:32:06.436Z,2.13
2023-02-26T20:35:09.881Z,1.96
2023-02-26T20:38:12.683Z,2.05
2023-02-26T20:41:16.656Z,2.13
2023-02-26T20:44:19.462Z,2.04
2023-02-26T20:47:22.211Z,1.99
2023-02-26T20:50:24.897Z,1.98
2023-02-26T20:53:27.943Z,1.98
2023-02-26T20:56:31.915Z,1.91
2023-02-26T20:59:34.549Z,1.82
2023-02-26T21:02:37.651Z,1.89
2023-02-26T21:05:41.668Z,1.84
2023-02-26T21:08:45.256Z,1.87
2023-02-26T21:11:51.520Z,1.80
2023-02-26T21:14:55.899Z,1.77
2023-02-26T21:17:58.495Z,1.70
2023-02-26T21:21:04.827Z,1.73
2023-02-26T21:24:08.048Z,1.57
2023-02-26T21:27:12.503Z,1.70
2023-02-26T21:30:16.592Z,1.74
2023-02-26T21:33:19.265Z,1.69
2023-02-26T21:36:22.005Z,1.63
2023-02-26T21:39:25.353Z,1.64
2023-02-26T21:42:29.316Z,1.73
2023-02-26T21:45:32.925Z,1.73
2023-02-26T21:48:35.615Z,1.70
2023-02-26T21:51:38.278Z,1.77
2023-02-26T21:54:40.981Z,1.64
2023-02-26T21:57:44.928Z,1.62
2023-02-26T22:00:47.547Z,1.42
2023-02-26T22:03:50.153Z,1.33
2023-02-26T22:06:52.840Z,1.46
2023-02-26T22:09:55.427Z,1.48
2023-02-26T22:12:59.369Z,1.53
2023-02-26T22:16:02.013Z,1.49
2023-02-26T22:19:04.633Z,1.50
2023-02-26T22:22:07.344Z,1.48
2023-02-26T22:25:11.791Z,1.39
2023-02-26T22:28:16.314Z,1.43
2023-02-26T22:31:19.022Z,1.37
2023-02-26T22:34:21.686Z,1.31
2023-02-26T22:37:24.328Z,1.30
2023-02-26T22:40:26.913Z,1.29
2023-02-26T22:43:30.840Z,1.30
2023-02-26T22:46:34.167Z,1.22
2023-02-26T22:49:36.817Z,1.21
2023-02-26T22:52:39.670Z,1.13
2023-02-26T22:55:42.268Z,1.17
2023-02-26T22:58:46.218Z,1.00
2023-02-26T23:01:48.816Z,0.97
2023-02-26T23:04:51.450Z,0.98
2023-02-26T23:07:54.060Z,1.11
2023-02-26T23:10:57.602Z,1.11
2023-02-26T23:14:01.577Z,1.22
2023-02-26T23:17:04.675Z,1.22
2023-02-26T23:20:09.993Z,1.22
2023-02-26T23:23:12.602Z,1.26
2023-02-26T23:26:15.385Z,1.02
2023-02-26T23:29:19.348Z,1.17
2023-02-26T23:32:22.023Z,1.14
2023-02-26T23:35:24.639Z,1.09
2023-02-26T23:38:27.333Z,1.03
2023-02-26T23:41:29.944Z,0.96
2023-02-26T23:44:34.005Z,1.03
2023-02-26T23:47:36.570Z,0.84
2023-02-26T23:50:39.200Z,0.88
2023-02-26T23:53:41.774Z,0.91
2023-02-26T23:56:46.359Z,0.84
2023-02-26T23:59:51.297Z,0.90
